21kousinmaru — JD2168 — position and weather

sailwx.info

Track history (hours):
 
Tides and Currents Weather Stations Pressure Air Temp Water Temp Dewpoint Dewpoint Depression Visibility Wind Speed Wind Dir Waves Ship Positions

21kousinmaru

Last reported at 2014-Sep-19 05:28 UTC. Time now 2014-Sep-20 07:56 UTC.
Position N 35°30' E 139°50'.

Length 68 m; draft 4 m.

Type: Tanker. MMSI: 431501835.

Date/timePositionNaut miles runAvg speedWind from/ knotsBaromVisibWave heightAir tempDewpointWater temp
2014-Sep-19 05:28N 35°30' E 139°50'0 0.0
2014-Sep-19 04:22N 35°30' E 139°50'0 0.0
2014-Sep-19 03:31N 35°30' E 139°50'0 0.0
2014-Sep-19 02:28N 35°30' E 139°50'0 0.0
2014-Sep-19 01:31N 35°30' E 139°50'4 4.1
2014-Sep-19 00:34N 35°30' E 139°45'1 0.9
2014-Sep-18 23:33N 35°31' E 139°45'0 0.1
2014-Sep-18 22:34N 35°31' E 139°45'6 6.4
2014-Sep-18 21:34N 35°25' E 139°46'1 0.1
2014-Sep-18 13:07N 35°24' E 139°45'0 0.0
2014-Sep-18 11:31N 35°24' E 139°45'0 0.0
2014-Sep-18 10:28N 35°24' E 139°45'0 0.0
2014-Sep-18 06:07N 35°24' E 139°45'5 9.0
2014-Sep-18 05:33N 35°25' E 139°39'0 0.1
2014-Sep-18 04:33N 35°25' E 139°39'0 0.0
2014-Sep-18 03:33N 35°25' E 139°39'0 0.0
2014-Sep-18 02:33N 35°25' E 139°39'2 2.3
2014-Sep-18 01:34N 35°23' E 139°41'9 8.4
2014-Sep-18 00:32N 35°31' E 139°45'0 0.0
2014-Sep-17 23:33N 35°31' E 139°45'0 0.1
2014-Sep-17 22:32N 35°31' E 139°45'7 6.8
2014-Sep-17 21:33N 35°24' E 139°45'0 0.0
2014-Sep-17 08:16N 35°24' E 139°45'5 6.8
2014-Sep-17 07:33N 35°25' E 139°39'0 0.0
2014-Sep-17 06:33N 35°25' E 139°39'0 0.0
2014-Sep-17 05:33N 35°25' E 139°39'0 0.0
2014-Sep-17 04:33N 35°25' E 139°39'2 2.1
2014-Sep-17 03:33N 35°23' E 139°40'1 0.5
2014-Sep-17 02:32N 35°22' E 139°40'1 0.8
2014-Sep-17 01:33N 35°23' E 139°41'9 8.6
2014-Sep-17 00:31N 35°31' E 139°45'0 0.0
2014-Sep-16 23:33N 35°31' E 139°45'0 0.2
2014-Sep-16 22:33N 35°31' E 139°45'7 6.6
2014-Sep-16 21:33N 35°24' E 139°45'0 0.3
2014-Sep-16 20:25N 35°24' E 139°45'0 0.0
2014-Sep-16 19:31N 35°24' E 139°45'0 0.0
2014-Sep-16 18:28N 35°24' E 139°45'0 0.0
2014-Sep-16 17:31N 35°24' E 139°45'0 0.0
2014-Sep-16 16:31N 35°24' E 139°45'3 0.3
2014-Sep-16 06:33N 35°23' E 139°41'3 2.5
2014-Sep-16 05:32N 35°25' E 139°39'0 0.0
2014-Sep-16 04:33N 35°25' E 139°39'0 0.0
2014-Sep-16 03:33N 35°25' E 139°39'0 0.0
2014-Sep-16 02:33N 35°25' E 139°39'1 1.1
2014-Sep-16 01:33N 35°24' E 139°40'1212.1
2014-Sep-16 00:33N 35°31' E 139°52'7 6.8
2014-Sep-15 23:33N 35°37' E 139°55'0 0.0
2014-Sep-15 22:33N 35°37' E 139°55'0 0.0
2014-Sep-15 21:25N 35°37' E 139°55'0 0.0
2014-Sep-15 20:31N 35°37' E 139°55'0 0.0
2014-Sep-15 19:33N 35°37' E 139°55'0 0.0
2014-Sep-15 18:33N 35°37' E 139°55'0 0.0
2014-Sep-15 17:33N 35°37' E 139°55'0 0.0
2014-Sep-15 16:33N 35°37' E 139°55'0 0.0
2014-Sep-15 15:27N 35°37' E 139°55'0 0.0
2014-Sep-15 14:12N 35°37' E 139°55'0 0.1
2014-Sep-15 13:27N 35°37' E 139°55'0 0.0
2014-Sep-15 12:33N 35°37' E 139°55'0 0.0
2014-Sep-15 11:30N 35°37' E 139°55'0 0.1
2014-Sep-15 10:33N 35°37' E 139°55'0 0.0
2014-Sep-15 09:33N 35°37' E 139°55'0 0.0
2014-Sep-15 08:33N 35°37' E 139°55'0 0.0
2014-Sep-15 07:33N 35°37' E 139°55'0 0.0
2014-Sep-15 06:30N 35°37' E 139°55'0 0.1
2014-Sep-15 05:30N 35°37' E 139°55'0 0.0
2014-Sep-15 04:30N 35°37' E 139°55'0 0.0
2014-Sep-15 03:30N 35°37' E 139°55'0 0.0
2014-Sep-15 02:33N 35°37' E 139°55'0 0.0
2014-Sep-15 01:33N 35°37' E 139°55'0 0.0
2014-Sep-15 00:33N 35°37' E 139°55'0 0.0
2014-Sep-14 23:24N 35°37' E 139°55'0 0.0
2014-Sep-14 22:33N 35°37' E 139°55'0 0.0
2014-Sep-14 21:27N 35°37' E 139°55'0 0.0
2014-Sep-14 20:33N 35°37' E 139°55'0 0.0
2014-Sep-14 19:21N 35°37' E 139°55'0 0.0
2014-Sep-14 18:33N 35°37' E 139°55'0 0.0
2014-Sep-14 17:33N 35°37' E 139°55'0 0.0
2014-Sep-14 16:24N 35°37' E 139°55'0 0.0
2014-Sep-14 15:12N 35°37' E 139°55'0 0.0
2014-Sep-14 14:33N 35°37' E 139°55'0 0.0
2014-Sep-14 13:33N 35°37' E 139°55'0 0.0
2014-Sep-14 12:30N 35°37' E 139°55'0 0.1
2014-Sep-14 11:33N 35°37' E 139°55'0 0.0
2014-Sep-14 10:33N 35°37' E 139°55'0 0.0
2014-Sep-14 09:24N 35°37' E 139°55'0 0.1
2014-Sep-14 08:32N 35°37' E 139°55'0 0.0
2014-Sep-14 07:29N 35°37' E 139°55'0 0.0
2014-Sep-14 06:29N 35°37' E 139°55'0 0.0
2014-Sep-14 05:29N 35°37' E 139°55'0 0.0
2014-Sep-14 04:26N 35°37' E 139°55'0 0.0
2014-Sep-14 03:29N 35°37' E 139°55'0 0.0
2014-Sep-14 02:32N 35°37' E 139°55'0 0.0
2014-Sep-14 01:29N 35°37' E 139°55'0 0.0
2014-Sep-13 21:26N 35°37' E 139°55'0 0.0
2014-Sep-13 20:32N 35°37' E 139°55'0 0.0
2014-Sep-13 19:32N 35°37' E 139°55'0 0.0
2014-Sep-13 18:32N 35°37' E 139°55'0 0.0
2014-Sep-13 17:29N 35°37' E 139°55'0 0.0
2014-Sep-13 16:29N 35°37' E 139°55'0 0.0
2014-Sep-13 15:32N 35°37' E 139°55'0 0.0
2014-Sep-13 14:26N 35°37' E 139°55'0 0.0
2014-Sep-13 13:23N 35°37' E 139°55'0 0.0
2014-Sep-13 12:32N 35°37' E 139°55'0 0.0
2014-Sep-13 11:26N 35°37' E 139°55'0 0.0
2014-Sep-13 10:32N 35°37' E 139°55'0 0.0
2014-Sep-13 09:32N 35°37' E 139°55'0 0.0
2014-Sep-13 08:23N 35°37' E 139°55'0 0.0
2014-Sep-13 07:26N 35°37' E 139°55'0 0.0
2014-Sep-13 06:32N 35°37' E 139°55'0 0.0
2014-Sep-13 05:26N 35°37' E 139°55'0 0.1
2014-Sep-13 04:29N 35°37' E 139°55'7 7.1
2014-Sep-13 03:33N 35°31' E 139°52'1 0.9
2014-Sep-13 02:25N 35°31' E 139°51'1011.2
2014-Sep-13 01:33N 35°31' E 140°03'0 0.2
2014-Sep-13 00:33N 35°31' E 140°02'0 0.0
2014-Sep-12 23:33N 35°31' E 140°02'0 0.0
2014-Sep-12 22:33N 35°31' E 140°02'2 2.5
2014-Sep-12 21:33N 35°31' E 139°59'4 3.6
2014-Sep-12 20:31N 35°29' E 139°56'0 0.0
2014-Sep-12 19:22N 35°29' E 139°56'0 0.0
2014-Sep-12 18:31N 35°29' E 139°56'0 0.0
2014-Sep-12 17:22N 35°29' E 139°56'0 0.0
2014-Sep-12 16:31N 35°29' E 139°56'0 0.0
2014-Sep-12 15:31N 35°29' E 139°56'0 0.0
2014-Sep-12 14:25N 35°29' E 139°56'0 0.0
2014-Sep-12 13:25N 35°29' E 139°56'0 0.1
2014-Sep-12 12:28N 35°29' E 139°56'0 0.0
2014-Sep-12 11:28N 35°29' E 139°56'0 0.1
2014-Sep-12 10:31N 35°29' E 139°56'0 0.0
2014-Sep-12 09:31N 35°29' E 139°56'0 0.0
2014-Sep-12 08:29N 35°29' E 139°56'1010.7
2014-Sep-12 07:33N 35°23' E 139°46'1212.4
2014-Sep-12 06:33N 35°11' E 139°47'24510.2
2014-Sep-11 06:33N 34°07' E 134°59'1514.1
2014-Sep-11 05:31N 34°22' E 135°01'1313.6
2014-Sep-11 04:33N 34°29' E 135°14'6 0.9
2014-Sep-10 21:33N 34°32' E 135°21'2 0.1
2014-Sep-10 06:33N 34°32' E 135°19'1414.5
2014-Sep-10 05:33N 34°36' E 135°02'  
Track history (hours):
 
Tides and Currents Weather Stations Pressure Air Temp Water Temp Dewpoint Dewpoint Depression Visibility Wind Speed Wind Dir Waves Ship Positions

21kousinmaru

Last reported at 2014-Sep-19 05:28 UTC. Time now 2014-Sep-20 07:56 UTC.
Position N 35°30' E 139°50'.

Length 68 m; draft 4 m.

Type: Tanker. MMSI: 431501835.

Date/timePositionNaut miles runAvg speedWind from/ knotsBaromVisibWave heightAir tempDewpointWater temp
2014-Sep-19 05:28N 35°30' E 139°50'0 0.0
2014-Sep-19 04:22N 35°30' E 139°50'0 0.0
2014-Sep-19 03:31N 35°30' E 139°50'0 0.0
2014-Sep-19 02:28N 35°30' E 139°50'0 0.0
2014-Sep-19 01:31N 35°30' E 139°50'4 4.1
2014-Sep-19 00:34N 35°30' E 139°45'1 0.9
2014-Sep-18 23:33N 35°31' E 139°45'0 0.1
2014-Sep-18 22:34N 35°31' E 139°45'6 6.4
2014-Sep-18 21:34N 35°25' E 139°46'1 0.1
2014-Sep-18 13:07N 35°24' E 139°45'0 0.0
2014-Sep-18 11:31N 35°24' E 139°45'0 0.0
2014-Sep-18 10:28N 35°24' E 139°45'0 0.0
2014-Sep-18 06:07N 35°24' E 139°45'5 9.0
2014-Sep-18 05:33N 35°25' E 139°39'0 0.1
2014-Sep-18 04:33N 35°25' E 139°39'0 0.0
2014-Sep-18 03:33N 35°25' E 139°39'0 0.0
2014-Sep-18 02:33N 35°25' E 139°39'2 2.3
2014-Sep-18 01:34N 35°23' E 139°41'9 8.4
2014-Sep-18 00:32N 35°31' E 139°45'0 0.0
2014-Sep-17 23:33N 35°31' E 139°45'0 0.1
2014-Sep-17 22:32N 35°31' E 139°45'7 6.8
2014-Sep-17 21:33N 35°24' E 139°45'0 0.0
2014-Sep-17 08:16N 35°24' E 139°45'5 6.8
2014-Sep-17 07:33N 35°25' E 139°39'0 0.0
2014-Sep-17 06:33N 35°25' E 139°39'0 0.0
2014-Sep-17 05:33N 35°25' E 139°39'0 0.0
2014-Sep-17 04:33N 35°25' E 139°39'2 2.1
2014-Sep-17 03:33N 35°23' E 139°40'1 0.5
2014-Sep-17 02:32N 35°22' E 139°40'1 0.8
2014-Sep-17 01:33N 35°23' E 139°41'9 8.6
2014-Sep-17 00:31N 35°31' E 139°45'0 0.0
2014-Sep-16 23:33N 35°31' E 139°45'0 0.2
2014-Sep-16 22:33N 35°31' E 139°45'7 6.6
2014-Sep-16 21:33N 35°24' E 139°45'0 0.3
2014-Sep-16 20:25N 35°24' E 139°45'0 0.0
2014-Sep-16 19:31N 35°24' E 139°45'0 0.0
2014-Sep-16 18:28N 35°24' E 139°45'0 0.0
2014-Sep-16 17:31N 35°24' E 139°45'0 0.0
2014-Sep-16 16:31N 35°24' E 139°45'3 0.3
2014-Sep-16 06:33N 35°23' E 139°41'3 2.5
2014-Sep-16 05:32N 35°25' E 139°39'0 0.0
2014-Sep-16 04:33N 35°25' E 139°39'0 0.0
2014-Sep-16 03:33N 35°25' E 139°39'0 0.0
2014-Sep-16 02:33N 35°25' E 139°39'1 1.1
2014-Sep-16 01:33N 35°24' E 139°40'1212.1
2014-Sep-16 00:33N 35°31' E 139°52'7 6.8
2014-Sep-15 23:33N 35°37' E 139°55'0 0.0
2014-Sep-15 22:33N 35°37' E 139°55'0 0.0
2014-Sep-15 21:25N 35°37' E 139°55'0 0.0
2014-Sep-15 20:31N 35°37' E 139°55'0 0.0
2014-Sep-15 19:33N 35°37' E 139°55'0 0.0
2014-Sep-15 18:33N 35°37' E 139°55'0 0.0
2014-Sep-15 17:33N 35°37' E 139°55'0 0.0
2014-Sep-15 16:33N 35°37' E 139°55'0 0.0
2014-Sep-15 15:27N 35°37' E 139°55'0 0.0
2014-Sep-15 14:12N 35°37' E 139°55'0 0.1
2014-Sep-15 13:27N 35°37' E 139°55'0 0.0
2014-Sep-15 12:33N 35°37' E 139°55'0 0.0
2014-Sep-15 11:30N 35°37' E 139°55'0 0.1
2014-Sep-15 10:33N 35°37' E 139°55'0 0.0
2014-Sep-15 09:33N 35°37' E 139°55'0 0.0
2014-Sep-15 08:33N 35°37' E 139°55'0 0.0
2014-Sep-15 07:33N 35°37' E 139°55'0 0.0
2014-Sep-15 06:30N 35°37' E 139°55'0 0.1
2014-Sep-15 05:30N 35°37' E 139°55'0 0.0
2014-Sep-15 04:30N 35°37' E 139°55'0 0.0
2014-Sep-15 03:30N 35°37' E 139°55'0 0.0
2014-Sep-15 02:33N 35°37' E 139°55'0 0.0
2014-Sep-15 01:33N 35°37' E 139°55'0 0.0
2014-Sep-15 00:33N 35°37' E 139°55'0 0.0
2014-Sep-14 23:24N 35°37' E 139°55'0 0.0
2014-Sep-14 22:33N 35°37' E 139°55'0 0.0
2014-Sep-14 21:27N 35°37' E 139°55'0 0.0
2014-Sep-14 20:33N 35°37' E 139°55'0 0.0
2014-Sep-14 19:21N 35°37' E 139°55'0 0.0
2014-Sep-14 18:33N 35°37' E 139°55'0 0.0
2014-Sep-14 17:33N 35°37' E 139°55'0 0.0
2014-Sep-14 16:24N 35°37' E 139°55'0 0.0
2014-Sep-14 15:12N 35°37' E 139°55'0 0.0
2014-Sep-14 14:33N 35°37' E 139°55'0 0.0
2014-Sep-14 13:33N 35°37' E 139°55'0 0.0
2014-Sep-14 12:30N 35°37' E 139°55'0 0.1
2014-Sep-14 11:33N 35°37' E 139°55'0 0.0
2014-Sep-14 10:33N 35°37' E 139°55'0 0.0
2014-Sep-14 09:24N 35°37' E 139°55'0 0.1
2014-Sep-14 08:32N 35°37' E 139°55'0 0.0
2014-Sep-14 07:29N 35°37' E 139°55'0 0.0
2014-Sep-14 06:29N 35°37' E 139°55'0 0.0
2014-Sep-14 05:29N 35°37' E 139°55'0 0.0
2014-Sep-14 04:26N 35°37' E 139°55'0 0.0
2014-Sep-14 03:29N 35°37' E 139°55'0 0.0
2014-Sep-14 02:32N 35°37' E 139°55'0 0.0
2014-Sep-14 01:29N 35°37' E 139°55'0 0.0
2014-Sep-13 21:26N 35°37' E 139°55'0 0.0
2014-Sep-13 20:32N 35°37' E 139°55'0 0.0
2014-Sep-13 19:32N 35°37' E 139°55'0 0.0
2014-Sep-13 18:32N 35°37' E 139°55'0 0.0
2014-Sep-13 17:29N 35°37' E 139°55'0 0.0
2014-Sep-13 16:29N 35°37' E 139°55'0 0.0
2014-Sep-13 15:32N 35°37' E 139°55'0 0.0
2014-Sep-13 14:26N 35°37' E 139°55'0 0.0
2014-Sep-13 13:23N 35°37' E 139°55'0 0.0
2014-Sep-13 12:32N 35°37' E 139°55'0 0.0
2014-Sep-13 11:26N 35°37' E 139°55'0 0.0
2014-Sep-13 10:32N 35°37' E 139°55'0 0.0
2014-Sep-13 09:32N 35°37' E 139°55'0 0.0
2014-Sep-13 08:23N 35°37' E 139°55'0 0.0
2014-Sep-13 07:26N 35°37' E 139°55'0 0.0
2014-Sep-13 06:32N 35°37' E 139°55'0 0.0
2014-Sep-13 05:26N 35°37' E 139°55'0 0.1
2014-Sep-13 04:29N 35°37' E 139°55'7 7.1
2014-Sep-13 03:33N 35°31' E 139°52'1 0.9
2014-Sep-13 02:25N 35°31' E 139°51'1011.2
2014-Sep-13 01:33N 35°31' E 140°03'0 0.2
2014-Sep-13 00:33N 35°31' E 140°02'0 0.0
2014-Sep-12 23:33N 35°31' E 140°02'0 0.0
2014-Sep-12 22:33N 35°31' E 140°02'2 2.5
2014-Sep-12 21:33N 35°31' E 139°59'4 3.6
2014-Sep-12 20:31N 35°29' E 139°56'0 0.0
2014-Sep-12 19:22N 35°29' E 139°56'0 0.0
2014-Sep-12 18:31N 35°29' E 139°56'0 0.0
2014-Sep-12 17:22N 35°29' E 139°56'0 0.0
2014-Sep-12 16:31N 35°29' E 139°56'0 0.0
2014-Sep-12 15:31N 35°29' E 139°56'0 0.0
2014-Sep-12 14:25N 35°29' E 139°56'0 0.0
2014-Sep-12 13:25N 35°29' E 139°56'0 0.1
2014-Sep-12 12:28N 35°29' E 139°56'0 0.0
2014-Sep-12 11:28N 35°29' E 139°56'0 0.1
2014-Sep-12 10:31N 35°29' E 139°56'0 0.0
2014-Sep-12 09:31N 35°29' E 139°56'0 0.0
2014-Sep-12 08:29N 35°29' E 139°56'1010.7
2014-Sep-12 07:33N 35°23' E 139°46'1212.4
2014-Sep-12 06:33N 35°11' E 139°47'24510.2
2014-Sep-11 06:33N 34°07' E 134°59'1514.1
2014-Sep-11 05:31N 34°22' E 135°01'1313.6
2014-Sep-11 04:33N 34°29' E 135°14'6 0.9
2014-Sep-10 21:33N 34°32' E 135°21'2 0.1
2014-Sep-10 06:33N 34°32' E 135°19'1414.5
2014-Sep-10 05:33N 34°36' E 135°02'  

Dump ship's entire track history